sensor_id;sensor_type;location;lat;lon;timestamp;P1;durP1;ratioP1;P2;durP2;ratioP2
48765;SDS011;65794;51.836;5.002;2023-04-24T00:00:55;1.77;;;1.00;;
48765;SDS011;65794;51.836;5.002;2023-04-24T00:03:23;0.80;;;0.40;;
48765;SDS011;65794;51.836;5.002;2023-04-24T00:05:50;4.97;;;0.40;;
48765;SDS011;65794;51.836;5.002;2023-04-24T00:08:17;1.02;;;0.43;;
48765;SDS011;65794;51.836;5.002;2023-04-24T00:10:44;1.40;;;0.50;;
48765;SDS011;65794;51.836;5.002;2023-04-24T00:13:11;1.00;;;0.47;;
48765;SDS011;65794;51.836;5.002;2023-04-24T00:15:38;3.88;;;0.60;;
48765;SDS011;65794;51.836;5.002;2023-04-24T00:18:05;0.90;;;0.50;;
48765;SDS011;65794;51.836;5.002;2023-04-24T00:20:32;1.40;;;0.60;;
48765;SDS011;65794;51.836;5.002;2023-04-24T00:22:59;3.05;;;0.60;;
48765;SDS011;65794;51.836;5.002;2023-04-24T00:25:26;2.28;;;0.55;;
48765;SDS011;65794;51.836;5.002;2023-04-24T00:27:53;0.82;;;0.40;;
48765;SDS011;65794;51.836;5.002;2023-04-24T00:30:20;1.65;;;0.40;;
48765;SDS011;65794;51.836;5.002;2023-04-24T00:32:47;0.88;;;0.30;;
48765;SDS011;65794;51.836;5.002;2023-04-24T00:35:14;1.70;;;0.30;;
48765;SDS011;65794;51.836;5.002;2023-04-24T00:37:41;1.77;;;0.50;;
48765;SDS011;65794;51.836;5.002;2023-04-24T00:40:09;0.73;;;0.38;;
48765;SDS011;65794;51.836;5.002;2023-04-24T00:42:36;0.88;;;0.40;;
48765;SDS011;65794;51.836;5.002;2023-04-24T00:45:03;1.88;;;0.75;;
48765;SDS011;65794;51.836;5.002;2023-04-24T00:47:31;2.85;;;0.93;;
48765;SDS011;65794;51.836;5.002;2023-04-24T00:50:03;2.00;;;1.13;;
48765;SDS011;65794;51.836;5.002;2023-04-24T00:52:30;3.63;;;1.50;;
48765;SDS011;65794;51.836;5.002;2023-04-24T00:54:59;5.22;;;1.92;;
48765;SDS011;65794;51.836;5.002;2023-04-24T00:57:26;9.00;;;2.30;;
48765;SDS011;65794;51.836;5.002;2023-04-24T00:59:53;5.32;;;2.33;;
48765;SDS011;65794;51.836;5.002;2023-04-24T01:02:21;8.07;;;3.70;;
48765;SDS011;65794;51.836;5.002;2023-04-24T01:04:49;11.98;;;4.10;;
48765;SDS011;65794;51.836;5.002;2023-04-24T01:07:20;12.07;;;4.95;;
48765;SDS011;65794;51.836;5.002;2023-04-24T01:09:48;14.43;;;6.97;;
48765;SDS011;65794;51.836;5.002;2023-04-24T01:12:18;16.05;;;7.30;;
48765;SDS011;65794;51.836;5.002;2023-04-24T01:14:45;18.48;;;8.18;;
48765;SDS011;65794;51.836;5.002;2023-04-24T01:17:14;14.02;;;7.90;;
48765;SDS011;65794;51.836;5.002;2023-04-24T01:19:41;16.90;;;8.77;;
48765;SDS011;65794;51.836;5.002;2023-04-24T01:22:15;18.67;;;8.65;;
48765;SDS011;65794;51.836;5.002;2023-04-24T01:24:42;18.50;;;8.77;;
48765;SDS011;65794;51.836;5.002;2023-04-24T01:27:11;21.10;;;9.20;;
48765;SDS011;65794;51.836;5.002;2023-04-24T01:29:38;19.73;;;9.40;;
48765;SDS011;65794;51.836;5.002;2023-04-24T01:32:05;21.77;;;9.23;;
48765;SDS011;65794;51.836;5.002;2023-04-24T01:34:32;22.10;;;10.27;;
48765;SDS011;65794;51.836;5.002;2023-04-24T01:36:59;18.75;;;9.10;;
48765;SDS011;65794;51.836;5.002;2023-04-24T01:39:26;14.32;;;7.05;;
48765;SDS011;65794;51.836;5.002;2023-04-24T01:41:55;10.48;;;5.80;;
48765;SDS011;65794;51.836;5.002;2023-04-24T01:44:22;16.55;;;7.57;;
48765;SDS011;65794;51.836;5.002;2023-04-24T01:46:49;11.10;;;5.57;;
48765;SDS011;65794;51.836;5.002;2023-04-24T01:49:17;11.00;;;4.82;;
48765;SDS011;65794;51.836;5.002;2023-04-24T01:51:44;9.20;;;5.07;;
48765;SDS011;65794;51.836;5.002;2023-04-24T01:54:11;9.93;;;5.75;;
48765;SDS011;65794;51.836;5.002;2023-04-24T01:56:41;11.80;;;5.63;;
48765;SDS011;65794;51.836;5.002;2023-04-24T01:59:12;14.93;;;6.30;;
48765;SDS011;65794;51.836;5.002;2023-04-24T02:01:39;13.57;;;5.95;;
48765;SDS011;65794;51.836;5.002;2023-04-24T02:04:07;13.82;;;6.78;;
48765;SDS011;65794;51.836;5.002;2023-04-24T02:06:35;14.57;;;7.45;;
48765;SDS011;65794;51.836;5.002;2023-04-24T02:09:01;15.60;;;7.55;;
48765;SDS011;65794;51.836;5.002;2023-04-24T02:11:29;13.48;;;7.57;;
48765;SDS011;65794;51.836;5.002;2023-04-24T02:13:57;18.10;;;8.10;;
48765;SDS011;65794;51.836;5.002;2023-04-24T02:16:23;15.65;;;7.22;;
48765;SDS011;65794;51.836;5.002;2023-04-24T02:18:51;14.57;;;7.43;;
48765;SDS011;65794;51.836;5.002;2023-04-24T02:21:18;16.67;;;8.75;;
48765;SDS011;65794;51.836;5.002;2023-04-24T02:23:45;18.77;;;8.77;;
48765;SDS011;65794;51.836;5.002;2023-04-24T02:26:12;17.38;;;8.90;;
48765;SDS011;65794;51.836;5.002;2023-04-24T02:28:42;26.40;;;9.32;;
48765;SDS011;65794;51.836;5.002;2023-04-24T02:31:10;18.65;;;9.60;;
48765;SDS011;65794;51.836;5.002;2023-04-24T02:33:36;26.00;;;10.63;;
48765;SDS011;65794;51.836;5.002;2023-04-24T02:36:03;22.48;;;11.63;;
48765;SDS011;65794;51.836;5.002;2023-04-24T02:38:30;25.70;;;12.05;;
48765;SDS011;65794;51.836;5.002;2023-04-24T02:40:57;37.58;;;15.25;;
48765;SDS011;65794;51.836;5.002;2023-04-24T02:43:25;34.35;;;14.90;;
48765;SDS011;65794;51.836;5.002;2023-04-24T02:45:52;27.48;;;13.85;;
48765;SDS011;65794;51.836;5.002;2023-04-24T02:48:19;30.00;;;15.52;;
48765;SDS011;65794;51.836;5.002;2023-04-24T02:50:47;42.40;;;16.40;;
48765;SDS011;65794;51.836;5.002;2023-04-24T02:53:14;34.28;;;14.93;;
48765;SDS011;65794;51.836;5.002;2023-04-24T02:55:41;32.90;;;14.95;;
48765;SDS011;65794;51.836;5.002;2023-04-24T02:58:07;35.80;;;13.10;;
48765;SDS011;65794;51.836;5.002;2023-04-24T03:00:35;28.33;;;13.80;;
48765;SDS011;65794;51.836;5.002;2023-04-24T03:03:01;30.38;;;13.60;;
48765;SDS011;65794;51.836;5.002;2023-04-24T03:05:29;32.08;;;12.45;;
48765;SDS011;65794;51.836;5.002;2023-04-24T03:07:57;31.25;;;12.35;;
48765;SDS011;65794;51.836;5.002;2023-04-24T03:10:24;28.08;;;12.35;;
48765;SDS011;65794;51.836;5.002;2023-04-24T03:12:51;28.38;;;11.52;;
48765;SDS011;65794;51.836;5.002;2023-04-24T03:15:18;26.00;;;12.27;;
48765;SDS011;65794;51.836;5.002;2023-04-24T03:17:45;28.80;;;11.93;;
48765;SDS011;65794;51.836;5.002;2023-04-24T03:20:12;24.55;;;12.10;;
48765;SDS011;65794;51.836;5.002;2023-04-24T03:22:39;28.10;;;11.35;;
48765;SDS011;65794;51.836;5.002;2023-04-24T03:25:07;25.15;;;10.38;;
48765;SDS011;65794;51.836;5.002;2023-04-24T03:27:37;23.58;;;11.10;;
48765;SDS011;65794;51.836;5.002;2023-04-24T03:30:11;25.85;;;9.98;;
48765;SDS011;65794;51.836;5.002;2023-04-24T03:32:49;20.55;;;9.27;;
48765;SDS011;65794;51.836;5.002;2023-04-24T03:35:21;19.77;;;9.20;;
48765;SDS011;65794;51.836;5.002;2023-04-24T03:37:49;17.15;;;8.13;;
48765;SDS011;65794;51.836;5.002;2023-04-24T03:40:35;19.60;;;7.75;;
48765;SDS011;65794;51.836;5.002;2023-04-24T03:43:06;15.48;;;7.57;;
48765;SDS011;65794;51.836;5.002;2023-04-24T03:45:33;19.40;;;7.78;;
48765;SDS011;65794;51.836;5.002;2023-04-24T03:48:01;17.13;;;8.32;;
48765;SDS011;65794;51.836;5.002;2023-04-24T03:50:31;18.60;;;7.43;;
48765;SDS011;65794;51.836;5.002;2023-04-24T03:53:00;20.23;;;7.63;;
48765;SDS011;65794;51.836;5.002;2023-04-24T03:55:37;13.15;;;6.00;;
48765;SDS011;65794;51.836;5.002;2023-04-24T03:58:08;10.55;;;4.93;;
48765;SDS011;65794;51.836;5.002;2023-04-24T04:00:35;10.40;;;4.38;;
48765;SDS011;65794;51.836;5.002;2023-04-24T04:03:26;11.57;;;4.55;;
48765;SDS011;65794;51.836;5.002;2023-04-24T04:05:53;8.65;;;4.80;;
48765;SDS011;65794;51.836;5.002;2023-04-24T04:08:20;9.32;;;4.43;;
48765;SDS011;65794;51.836;5.002;2023-04-24T04:10:47;10.20;;;4.55;;
48765;SDS011;65794;51.836;5.002;2023-04-24T04:13:14;9.27;;;4.53;;
48765;SDS011;65794;51.836;5.002;2023-04-24T04:15:41;10.68;;;5.18;;
48765;SDS011;65794;51.836;5.002;2023-04-24T04:18:08;11.80;;;5.63;;
48765;SDS011;65794;51.836;5.002;2023-04-24T04:20:35;16.88;;;4.95;;
48765;SDS011;65794;51.836;5.002;2023-04-24T04:23:02;9.68;;;4.85;;
48765;SDS011;65794;51.836;5.002;2023-04-24T04:25:57;10.10;;;5.13;;
48765;SDS011;65794;51.836;5.002;2023-04-24T04:28:36;14.45;;;5.38;;
48765;SDS011;65794;51.836;5.002;2023-04-24T04:31:05;11.73;;;5.43;;
48765;SDS011;65794;51.836;5.002;2023-04-24T04:33:32;12.93;;;5.68;;
48765;SDS011;65794;51.836;5.002;2023-04-24T04:35:58;12.60;;;6.07;;
48765;SDS011;65794;51.836;5.002;2023-04-24T04:38:29;10.93;;;6.07;;
48765;SDS011;65794;51.836;5.002;2023-04-24T04:41:13;13.55;;;6.28;;
48765;SDS011;65794;51.836;5.002;2023-04-24T04:43:40;16.92;;;7.32;;
48765;SDS011;65794;51.836;5.002;2023-04-24T04:46:07;13.23;;;7.13;;
48765;SDS011;65794;51.836;5.002;2023-04-24T04:49:01;16.17;;;8.18;;
48765;SDS011;65794;51.836;5.002;2023-04-24T04:51:28;16.00;;;7.65;;
48765;SDS011;65794;51.836;5.002;2023-04-24T04:53:55;14.25;;;7.90;;
48765;SDS011;65794;51.836;5.002;2023-04-24T04:56:22;14.98;;;8.50;;
48765;SDS011;65794;51.836;5.002;2023-04-24T04:58:49;14.18;;;7.68;;
48765;SDS011;65794;51.836;5.002;2023-04-24T05:01:18;15.00;;;7.40;;
48765;SDS011;65794;51.836;5.002;2023-04-24T05:03:47;14.68;;;8.30;;
48765;SDS011;65794;51.836;5.002;2023-04-24T05:06:15;16.25;;;6.85;;
48765;SDS011;65794;51.836;5.002;2023-04-24T05:08:44;12.15;;;5.88;;
48765;SDS011;65794;51.836;5.002;2023-04-24T05:11:21;13.82;;;6.35;;
48765;SDS011;65794;51.836;5.002;2023-04-24T05:13:48;11.68;;;4.97;;
48765;SDS011;65794;51.836;5.002;2023-04-24T05:16:21;8.05;;;4.60;;
48765;SDS011;65794;51.836;5.002;2023-04-24T05:18:50;7.72;;;3.40;;
48765;SDS011;65794;51.836;5.002;2023-04-24T05:21:21;7.20;;;3.65;;
48765;SDS011;65794;51.836;5.002;2023-04-24T05:23:50;8.07;;;3.70;;
48765;SDS011;65794;51.836;5.002;2023-04-24T05:26:27;8.32;;;3.30;;
48765;SDS011;65794;51.836;5.002;2023-04-24T05:28:56;8.50;;;3.72;;
48765;SDS011;65794;51.836;5.002;2023-04-24T05:31:23;8.90;;;4.03;;
48765;SDS011;65794;51.836;5.002;2023-04-24T05:33:50;8.10;;;3.85;;
48765;SDS011;65794;51.836;5.002;2023-04-24T05:36:17;10.05;;;3.92;;
48765;SDS011;65794;51.836;5.002;2023-04-24T05:38:44;7.38;;;3.83;;
48765;SDS011;65794;51.836;5.002;2023-04-24T05:41:11;6.50;;;3.17;;
48765;SDS011;65794;51.836;5.002;2023-04-24T05:43:38;8.27;;;3.53;;
48765;SDS011;65794;51.836;5.002;2023-04-24T05:46:05;6.68;;;2.83;;
48765;SDS011;65794;51.836;5.002;2023-04-24T05:48:32;6.00;;;3.17;;
48765;SDS011;65794;51.836;5.002;2023-04-24T05:51:02;7.57;;;3.38;;
48765;SDS011;65794;51.836;5.002;2023-04-24T05:53:29;10.20;;;3.40;;
48765;SDS011;65794;51.836;5.002;2023-04-24T05:55:56;6.45;;;3.80;;
48765;SDS011;65794;51.836;5.002;2023-04-24T05:58:23;7.30;;;3.70;;
48765;SDS011;65794;51.836;5.002;2023-04-24T06:00:50;12.85;;;5.50;;
48765;SDS011;65794;51.836;5.002;2023-04-24T06:03:17;9.18;;;4.45;;
48765;SDS011;65794;51.836;5.002;2023-04-24T06:05:46;9.20;;;5.18;;
48765;SDS011;65794;51.836;5.002;2023-04-24T06:08:13;17.15;;;7.38;;
48765;SDS011;65794;51.836;5.002;2023-04-24T06:10:42;12.15;;;5.80;;
48765;SDS011;65794;51.836;5.002;2023-04-24T06:13:09;21.73;;;8.38;;
48765;SDS011;65794;51.836;5.002;2023-04-24T06:15:41;21.73;;;11.27;;
48765;SDS011;65794;51.836;5.002;2023-04-24T06:18:11;18.35;;;10.13;;
48765;SDS011;65794;51.836;5.002;2023-04-24T06:20:40;30.45;;;11.05;;
48765;SDS011;65794;51.836;5.002;2023-04-24T06:23:08;30.35;;;13.40;;
48765;SDS011;65794;51.836;5.002;2023-04-24T06:25:35;27.27;;;13.07;;
48765;SDS011;65794;51.836;5.002;2023-04-24T06:28:03;33.17;;;14.00;;
48765;SDS011;65794;51.836;5.002;2023-04-24T06:30:30;23.48;;;11.60;;
48765;SDS011;65794;51.836;5.002;2023-04-24T06:32:56;21.98;;;9.50;;
48765;SDS011;65794;51.836;5.002;2023-04-24T06:35:36;27.75;;;13.30;;
48765;SDS011;65794;51.836;5.002;2023-04-24T06:38:03;38.58;;;15.15;;
48765;SDS011;65794;51.836;5.002;2023-04-24T06:40:29;29.88;;;11.95;;
48765;SDS011;65794;51.836;5.002;2023-04-24T06:42:56;27.30;;;10.73;;
48765;SDS011;65794;51.836;5.002;2023-04-24T06:45:25;30.55;;;12.77;;
48765;SDS011;65794;51.836;5.002;2023-04-24T06:47:52;38.63;;;12.60;;
48765;SDS011;65794;51.836;5.002;2023-04-24T06:50:19;41.05;;;12.48;;
48765;SDS011;65794;51.836;5.002;2023-04-24T06:52:46;34.50;;;12.93;;
48765;SDS011;65794;51.836;5.002;2023-04-24T06:55:12;32.08;;;12.18;;
48765;SDS011;65794;51.836;5.002;2023-04-24T06:57:41;24.95;;;12.45;;
48765;SDS011;65794;51.836;5.002;2023-04-24T07:00:09;29.65;;;10.70;;
48765;SDS011;65794;51.836;5.002;2023-04-24T07:02:36;29.50;;;10.18;;
48765;SDS011;65794;51.836;5.002;2023-04-24T07:05:04;19.48;;;6.97;;
48765;SDS011;65794;51.836;5.002;2023-04-24T07:07:31;27.55;;;9.40;;
48765;SDS011;65794;51.836;5.002;2023-04-24T07:09:58;32.13;;;9.57;;
48765;SDS011;65794;51.836;5.002;2023-04-24T07:12:25;25.90;;;8.40;;
48765;SDS011;65794;51.836;5.002;2023-04-24T07:14:52;26.60;;;7.85;;
48765;SDS011;65794;51.836;5.002;2023-04-24T07:17:19;18.15;;;6.20;;
48765;SDS011;65794;51.836;5.002;2023-04-24T07:19:45;20.65;;;6.45;;
48765;SDS011;65794;51.836;5.002;2023-04-24T07:22:12;26.98;;;5.88;;
48765;SDS011;65794;51.836;5.002;2023-04-24T07:24:43;22.00;;;6.43;;
48765;SDS011;65794;51.836;5.002;2023-04-24T07:27:10;33.47;;;7.10;;
48765;SDS011;65794;51.836;5.002;2023-04-24T07:29:38;21.58;;;5.93;;
48765;SDS011;65794;51.836;5.002;2023-04-24T07:32:06;22.15;;;5.38;;
48765;SDS011;65794;51.836;5.002;2023-04-24T07:34:35;28.40;;;7.30;;
48765;SDS011;65794;51.836;5.002;2023-04-24T07:37:01;28.23;;;7.05;;
48765;SDS011;65794;51.836;5.002;2023-04-24T07:39:28;16.52;;;5.85;;
48765;SDS011;65794;51.836;5.002;2023-04-24T07:41:55;24.33;;;6.47;;
48765;SDS011;65794;51.836;5.002;2023-04-24T07:44:22;23.17;;;4.47;;
48765;SDS011;65794;51.836;5.002;2023-04-24T07:46:49;12.75;;;4.00;;
48765;SDS011;65794;51.836;5.002;2023-04-24T07:49:16;12.18;;;3.60;;
48765;SDS011;65794;51.836;5.002;2023-04-24T07:51:45;12.80;;;3.88;;
48765;SDS011;65794;51.836;5.002;2023-04-24T07:54:12;11.77;;;3.38;;
48765;SDS011;65794;51.836;5.002;2023-04-24T07:56:40;13.75;;;3.85;;
48765;SDS011;65794;51.836;5.002;2023-04-24T07:59:08;18.73;;;3.75;;
48765;SDS011;65794;51.836;5.002;2023-04-24T08:01:36;23.23;;;4.50;;
48765;SDS011;65794;51.836;5.002;2023-04-24T08:04:03;26.73;;;4.55;;
48765;SDS011;65794;51.836;5.002;2023-04-24T08:06:33;21.90;;;4.10;;
48765;SDS011;65794;51.836;5.002;2023-04-24T08:09:00;20.10;;;3.90;;
48765;SDS011;65794;51.836;5.002;2023-04-24T08:11:27;23.83;;;4.05;;
48765;SDS011;65794;51.836;5.002;2023-04-24T08:13:54;23.92;;;3.55;;
48765;SDS011;65794;51.836;5.002;2023-04-24T08:16:21;21.75;;;3.53;;
48765;SDS011;65794;51.836;5.002;2023-04-24T08:18:50;17.48;;;3.55;;
48765;SDS011;65794;51.836;5.002;2023-04-24T08:21:17;31.30;;;4.28;;
48765;SDS011;65794;51.836;5.002;2023-04-24T08:23:45;16.42;;;3.45;;
48765;SDS011;65794;51.836;5.002;2023-04-24T08:26:12;24.23;;;3.83;;
48765;SDS011;65794;51.836;5.002;2023-04-24T08:28:39;15.30;;;2.78;;
48765;SDS011;65794;51.836;5.002;2023-04-24T08:31:06;11.43;;;2.78;;
48765;SDS011;65794;51.836;5.002;2023-04-24T08:33:33;16.20;;;3.08;;
48765;SDS011;65794;51.836;5.002;2023-04-24T08:36:03;20.38;;;3.38;;
48765;SDS011;65794;51.836;5.002;2023-04-24T08:38:30;8.05;;;2.15;;
48765;SDS011;65794;51.836;5.002;2023-04-24T08:40:58;20.52;;;3.78;;
48765;SDS011;65794;51.836;5.002;2023-04-24T08:43:25;16.42;;;2.55;;
48765;SDS011;65794;51.836;5.002;2023-04-24T08:45:52;12.75;;;2.50;;
48765;SDS011;65794;51.836;5.002;2023-04-24T08:48:23;16.40;;;3.20;;
48765;SDS011;65794;51.836;5.002;2023-04-24T08:50:57;13.77;;;2.75;;
48765;SDS011;65794;51.836;5.002;2023-04-24T08:53:25;19.45;;;3.22;;
48765;SDS011;65794;51.836;5.002;2023-04-24T08:55:52;10.52;;;2.13;;
48765;SDS011;65794;51.836;5.002;2023-04-24T08:58:20;14.80;;;2.67;;
48765;SDS011;65794;51.836;5.002;2023-04-24T09:00:49;12.63;;;2.92;;
48765;SDS011;65794;51.836;5.002;2023-04-24T09:03:16;16.38;;;2.17;;
48765;SDS011;65794;51.836;5.002;2023-04-24T09:05:44;15.27;;;3.30;;
48765;SDS011;65794;51.836;5.002;2023-04-24T09:08:13;12.70;;;2.72;;
48765;SDS011;65794;51.836;5.002;2023-04-24T09:10:40;6.80;;;1.75;;
48765;SDS011;65794;51.836;5.002;2023-04-24T09:13:07;11.20;;;2.17;;
48765;SDS011;65794;51.836;5.002;2023-04-24T09:15:38;10.40;;;2.35;;
48765;SDS011;65794;51.836;5.002;2023-04-24T09:18:05;8.45;;;2.20;;
48765;SDS011;65794;51.836;5.002;2023-04-24T09:20:32;11.75;;;2.17;;
48765;SDS011;65794;51.836;5.002;2023-04-24T09:22:59;8.18;;;1.75;;
48765;SDS011;65794;51.836;5.002;2023-04-24T09:25:32;8.50;;;1.85;;
48765;SDS011;65794;51.836;5.002;2023-04-24T09:28:01;13.10;;;2.08;;
48765;SDS011;65794;51.836;5.002;2023-04-24T09:30:29;8.38;;;1.90;;
48765;SDS011;65794;51.836;5.002;2023-04-24T09:33:14;16.00;;;2.15;;
48765;SDS011;65794;51.836;5.002;2023-04-24T09:35:42;9.13;;;1.48;;
48765;SDS011;65794;51.836;5.002;2023-04-24T09:38:09;12.55;;;1.70;;
48765;SDS011;65794;51.836;5.002;2023-04-24T09:40:37;7.75;;;1.45;;
48765;SDS011;65794;51.836;5.002;2023-04-24T09:43:10;6.63;;;1.10;;
48765;SDS011;65794;51.836;5.002;2023-04-24T09:45:40;9.75;;;1.17;;
48765;SDS011;65794;51.836;5.002;2023-04-24T09:48:10;4.40;;;1.17;;
48765;SDS011;65794;51.836;5.002;2023-04-24T09:50:37;2.50;;;1.00;;
48765;SDS011;65794;51.836;5.002;2023-04-24T09:53:05;6.22;;;1.00;;
48765;SDS011;65794;51.836;5.002;2023-04-24T09:55:35;8.25;;;1.48;;
48765;SDS011;65794;51.836;5.002;2023-04-24T09:58:05;10.95;;;1.48;;
48765;SDS011;65794;51.836;5.002;2023-04-24T10:00:35;5.40;;;0.90;;
48765;SDS011;65794;51.836;5.002;2023-04-24T10:03:05;3.22;;;0.82;;
48765;SDS011;65794;51.836;5.002;2023-04-24T10:05:33;6.38;;;0.80;;
48765;SDS011;65794;51.836;5.002;2023-04-24T10:08:01;5.65;;;1.10;;
48765;SDS011;65794;51.836;5.002;2023-04-24T10:10:30;5.22;;;1.02;;
48765;SDS011;65794;51.836;5.002;2023-04-24T10:12:57;4.70;;;0.90;;
48765;SDS011;65794;51.836;5.002;2023-04-24T10:15:24;5.93;;;1.08;;
48765;SDS011;65794;51.836;5.002;2023-04-24T10:17:51;4.57;;;0.70;;
48765;SDS011;65794;51.836;5.002;2023-04-24T10:20:21;1.92;;;0.50;;
48765;SDS011;65794;51.836;5.002;2023-04-24T10:22:50;7.03;;;0.95;;
48765;SDS011;65794;51.836;5.002;2023-04-24T10:25:20;6.13;;;0.85;;
48765;SDS011;65794;51.836;5.002;2023-04-24T10:27:48;1.85;;;0.50;;
48765;SDS011;65794;51.836;5.002;2023-04-24T10:30:15;2.58;;;0.50;;
48765;SDS011;65794;51.836;5.002;2023-04-24T10:32:42;4.60;;;0.73;;
48765;SDS011;65794;51.836;5.002;2023-04-24T10:35:09;9.52;;;0.88;;
48765;SDS011;65794;51.836;5.002;2023-04-24T10:37:37;6.30;;;0.80;;
48765;SDS011;65794;51.836;5.002;2023-04-24T10:40:05;3.92;;;0.70;;
48765;SDS011;65794;51.836;5.002;2023-04-24T10:42:34;4.72;;;0.70;;
48765;SDS011;65794;51.836;5.002;2023-04-24T10:45:04;5.10;;;0.80;;
48765;SDS011;65794;51.836;5.002;2023-04-24T10:47:41;5.45;;;0.50;;
48765;SDS011;65794;51.836;5.002;2023-04-24T10:50:12;3.03;;;0.40;;
48765;SDS011;65794;51.836;5.002;2023-04-24T10:52:48;4.75;;;0.40;;
48765;SDS011;65794;51.836;5.002;2023-04-24T10:55:39;4.07;;;0.60;;
48765;SDS011;65794;51.836;5.002;2023-04-24T10:58:06;5.38;;;0.52;;
48765;SDS011;65794;51.836;5.002;2023-04-24T11:00:33;3.55;;;0.90;;
